createdAt,value
2024-03-10T00:00:16.153Z,15.00
2024-03-10T00:02:47.013Z,15.27
2024-03-10T00:05:15.179Z,12.37
2024-03-10T00:07:43.263Z,7.30
2024-03-10T00:10:12.250Z,13.47
2024-03-10T00:12:38.779Z,8.57
2024-03-10T00:15:05.891Z,7.77
2024-03-10T00:17:32.544Z,12.43
2024-03-10T00:19:59.424Z,10.67
2024-03-10T00:22:26.034Z,8.77
2024-03-10T00:24:52.594Z,7.67
2024-03-10T00:27:19.347Z,10.73
2024-03-10T00:29:45.961Z,9.73
2024-03-10T00:32:12.526Z,21.90
2024-03-10T00:34:39.105Z,6.67
2024-03-10T00:37:06.844Z,9.00
2024-03-10T00:39:33.808Z,18.07
2024-03-10T00:42:00.415Z,8.83
2024-03-10T00:44:27.484Z,11.23
2024-03-10T00:46:54.175Z,10.80
2024-03-10T00:49:20.869Z,11.37
2024-03-10T00:51:47.445Z,8.40
2024-03-10T00:54:14.663Z,12.73
2024-03-10T00:56:41.257Z,13.20
2024-03-10T00:59:07.847Z,13.83
2024-03-10T01:01:35.312Z,14.53
2024-03-10T01:04:02.029Z,14.70
2024-03-10T01:06:28.707Z,12.43
2024-03-10T01:08:55.248Z,14.87
2024-03-10T01:11:22.019Z,9.90
2024-03-10T01:13:48.841Z,13.53
2024-03-10T01:16:15.774Z,11.00
2024-03-10T01:18:42.393Z,14.80
2024-03-10T01:21:08.954Z,11.73
2024-03-10T01:23:35.535Z,16.97
2024-03-10T01:26:02.161Z,10.33
2024-03-10T01:28:28.850Z,9.37
2024-03-10T01:30:55.487Z,15.97
2024-03-10T01:33:22.037Z,13.90
2024-03-10T01:35:49.700Z,9.33
2024-03-10T01:38:20.261Z,10.37
2024-03-10T01:40:46.934Z,11.10
2024-03-10T01:43:13.508Z,8.97
2024-03-10T01:45:40.150Z,8.03
2024-03-10T01:48:08.970Z,8.23
2024-03-10T01:50:35.749Z,11.83
2024-03-10T01:53:02.541Z,14.50
2024-03-10T01:55:30.106Z,9.17
2024-03-10T01:57:57.539Z,9.77
2024-03-10T02:00:24.726Z,13.50
2024-03-10T02:02:51.805Z,9.07
2024-03-10T02:05:18.711Z,13.77
2024-03-10T02:07:45.462Z,12.00
2024-03-10T02:10:12.376Z,11.90
2024-03-10T02:12:39.594Z,9.17
2024-03-10T02:15:08.302Z,13.40
2024-03-10T02:17:37.997Z,11.37
2024-03-10T02:20:11.528Z,11.57
2024-03-10T02:22:38.128Z,16.87
2024-03-10T02:25:07.320Z,11.90
2024-03-10T02:27:43.561Z,10.53
2024-03-10T02:30:20.257Z,16.67
2024-03-10T02:33:05.996Z,9.53
2024-03-10T02:36:05.054Z,8.73
2024-03-10T02:38:50.025Z,12.50
2024-03-10T02:41:35.474Z,9.90
2024-03-10T02:44:20.655Z,12.10
2024-03-10T02:47:05.825Z,12.07
2024-03-10T02:49:32.490Z,17.40
2024-03-10T02:51:59.728Z,8.47
2024-03-10T02:54:26.839Z,11.97
2024-03-10T02:56:53.364Z,9.63
2024-03-10T02:59:21.082Z,10.57
2024-03-10T03:01:48.667Z,13.43
2024-03-10T03:04:16.947Z,12.43
2024-03-10T03:06:44.097Z,13.67
2024-03-10T03:09:10.781Z,9.47
2024-03-10T03:11:38.940Z,10.57
2024-03-10T03:14:09.347Z,11.73
2024-03-10T03:16:36.791Z,9.57
2024-03-10T03:19:04.587Z,15.17
2024-03-10T03:21:33.144Z,10.30
2024-03-10T03:23:59.769Z,7.97
2024-03-10T03:26:26.652Z,8.77
2024-03-10T03:28:53.331Z,8.77
2024-03-10T03:31:20.050Z,9.80
2024-03-10T03:33:46.583Z,9.90
2024-03-10T03:36:15.907Z,11.93
2024-03-10T03:38:44.575Z,10.43
2024-03-10T03:41:11.427Z,11.40
2024-03-10T03:43:38.009Z,10.67
2024-03-10T03:46:06.040Z,8.40
2024-03-10T03:48:32.974Z,10.93
2024-03-10T03:50:59.693Z,10.90
2024-03-10T03:53:26.438Z,9.23
2024-03-10T03:55:53.104Z,8.83
2024-03-10T03:58:20.307Z,11.50
2024-03-10T04:00:46.921Z,8.80
2024-03-10T04:03:13.651Z,11.73
2024-03-10T04:05:42.174Z,6.93
2024-03-10T04:08:08.789Z,10.67
2024-03-10T04:10:38.384Z,11.60
2024-03-10T04:13:07.773Z,6.43
2024-03-10T04:15:37.649Z,12.83
2024-03-10T04:18:06.179Z,14.47
2024-03-10T04:20:33.517Z,11.20
2024-03-10T04:23:00.293Z,15.53
2024-03-10T04:25:27.143Z,9.60
2024-03-10T04:27:53.774Z,13.00
2024-03-10T04:30:27.544Z,10.63
2024-03-10T04:32:54.227Z,20.90
2024-03-10T04:35:21.269Z,14.90
2024-03-10T04:37:48.211Z,11.43
2024-03-10T04:40:17.769Z,8.93
2024-03-10T04:42:44.387Z,14.13
2024-03-10T04:45:13.809Z,17.73
2024-03-10T04:47:40.791Z,16.33
2024-03-10T04:50:10.341Z,6.83
2024-03-10T04:52:37.308Z,11.27
2024-03-10T04:55:06.004Z,15.40
2024-03-10T04:57:34.463Z,19.53
2024-03-10T05:00:01.988Z,10.87
2024-03-10T05:02:28.810Z,10.57
2024-03-10T05:04:55.901Z,18.20
2024-03-10T05:07:23.447Z,20.67
2024-03-10T05:09:50.084Z,19.13
2024-03-10T05:12:16.654Z,11.07
2024-03-10T05:14:43.276Z,17.13
2024-03-10T05:17:12.965Z,11.30
2024-03-10T05:19:46.302Z,15.40
2024-03-10T05:22:14.121Z,13.23
2024-03-10T05:24:44.346Z,11.97
2024-03-10T05:27:11.459Z,10.70
2024-03-10T05:29:38.341Z,12.07
2024-03-10T05:32:06.037Z,13.60
2024-03-10T05:34:36.985Z,9.77
2024-03-10T05:37:06.487Z,15.40
2024-03-10T05:39:33.599Z,7.20
2024-03-10T05:42:00.897Z,13.07
2024-03-10T05:44:27.758Z,9.97
2024-03-10T05:46:54.440Z,15.67
2024-03-10T05:49:21.026Z,8.20
2024-03-10T05:51:49.233Z,12.47
2024-03-10T05:54:15.846Z,11.07
2024-03-10T05:56:42.427Z,11.83
2024-03-10T05:59:09.160Z,9.57
2024-03-10T06:01:35.896Z,9.27
2024-03-10T06:04:02.471Z,11.53
2024-03-10T06:06:30.387Z,12.63
2024-03-10T06:08:57.139Z,14.03
2024-03-10T06:11:24.627Z,12.67
2024-03-10T06:13:51.512Z,7.07
2024-03-10T06:16:20.821Z,13.23
2024-03-10T06:18:57.473Z,17.70
2024-03-10T06:21:47.887Z,12.50
2024-03-10T06:24:33.234Z,12.20
2024-03-10T06:27:02.188Z,13.97
2024-03-10T06:29:29.005Z,18.17
2024-03-10T06:31:57.515Z,12.70
2024-03-10T06:34:24.178Z,13.03
2024-03-10T06:36:50.958Z,10.67
2024-03-10T06:39:21.023Z,14.03
2024-03-10T06:41:48.405Z,14.53
2024-03-10T06:44:20.596Z,21.33
2024-03-10T06:46:47.292Z,19.07
2024-03-10T06:49:15.748Z,14.00
2024-03-10T06:51:42.503Z,14.03
2024-03-10T06:54:09.642Z,13.63
2024-03-10T06:56:36.287Z,13.70
2024-03-10T06:59:03.998Z,19.03
2024-03-10T07:01:32.161Z,15.83
2024-03-10T07:03:58.883Z,20.07
2024-03-10T07:06:28.033Z,19.40
2024-03-10T07:08:55.598Z,16.77
2024-03-10T07:11:23.322Z,16.93
2024-03-10T07:13:50.244Z,16.63
2024-03-10T07:16:16.929Z,25.13
2024-03-10T07:18:43.504Z,21.87
2024-03-10T07:21:10.171Z,20.20
2024-03-10T07:23:36.956Z,15.70
2024-03-10T07:26:03.751Z,18.07
2024-03-10T07:28:31.306Z,15.03
2024-03-10T07:30:57.915Z,21.80
2024-03-10T07:33:24.717Z,20.07
2024-03-10T07:35:51.553Z,18.07
2024-03-10T07:38:18.604Z,20.00
2024-03-10T07:40:46.488Z,17.87
2024-03-10T07:43:14.071Z,18.23
2024-03-10T07:45:40.770Z,17.77
2024-03-10T07:48:07.675Z,27.90
2024-03-10T07:50:36.625Z,17.40
2024-03-10T07:53:03.599Z,25.10
2024-03-10T07:55:33.344Z,19.33
2024-03-10T07:58:00.000Z,21.43
2024-03-10T08:00:27.787Z,21.20
2024-03-10T08:02:55.338Z,18.63
2024-03-10T08:05:22.633Z,22.60
2024-03-10T08:07:51.053Z,19.77
2024-03-10T08:10:18.728Z,22.03
2024-03-10T08:12:47.039Z,23.83
2024-03-10T08:15:14.876Z,17.13
2024-03-10T08:17:42.960Z,23.30
2024-03-10T08:20:15.865Z,20.80
2024-03-10T08:22:43.956Z,20.30
2024-03-10T08:25:10.943Z,35.23
2024-03-10T08:27:38.165Z,24.10
2024-03-10T08:30:06.046Z,24.57
2024-03-10T08:32:32.960Z,24.67
2024-03-10T08:34:59.810Z,23.80
2024-03-10T08:37:29.424Z,22.70
2024-03-10T08:39:56.160Z,25.10
2024-03-10T08:42:26.054Z,20.80
2024-03-10T08:44:52.783Z,22.50
2024-03-10T08:47:19.520Z,21.63
2024-03-10T08:49:46.229Z,26.83
2024-03-10T08:52:13.893Z,17.03
2024-03-10T08:54:40.565Z,23.07
2024-03-10T08:57:07.224Z,22.73
2024-03-10T08:59:34.205Z,19.93
2024-03-10T09:02:03.162Z,27.27
2024-03-10T09:04:29.896Z,22.27
2024-03-10T09:06:56.606Z,24.80
2024-03-10T09:09:23.751Z,23.17
2024-03-10T09:11:50.678Z,28.87
2024-03-10T09:14:19.931Z,17.43
2024-03-10T09:16:46.918Z,26.37
2024-03-10T09:19:13.626Z,20.63
2024-03-10T09:21:40.282Z,24.37
2024-03-10T09:24:07.060Z,20.43
2024-03-10T09:26:33.751Z,19.97
2024-03-10T09:29:02.339Z,20.50
2024-03-10T09:31:29.632Z,17.80
2024-03-10T09:33:56.171Z,19.70
2024-03-10T09:36:25.017Z,25.10
2024-03-10T09:38:53.576Z,22.33
2024-03-10T09:41:22.369Z,19.97
2024-03-10T09:43:52.678Z,20.87
2024-03-10T09:46:19.388Z,19.47
2024-03-10T09:48:46.542Z,21.07
2024-03-10T09:51:18.349Z,23.17
2024-03-10T09:53:45.571Z,20.73
2024-03-10T09:56:15.779Z,19.27
2024-03-10T09:59:00.667Z,20.63
2024-03-10T10:01:27.928Z,18.87
2024-03-10T10:03:55.539Z,17.93
2024-03-10T10:06:23.002Z,18.73
2024-03-10T10:08:56.382Z,16.17
2024-03-10T10:11:26.855Z,19.63
2024-03-10T10:14:10.781Z,21.47
2024-03-10T10:16:46.204Z,18.90
2024-03-10T10:19:17.192Z,23.20
2024-03-10T10:21:46.010Z,22.97
2024-03-10T10:24:12.978Z,21.93
2024-03-10T10:26:42.129Z,20.87
2024-03-10T10:29:13.373Z,21.47
2024-03-10T10:31:40.312Z,19.63
2024-03-10T10:34:08.224Z,22.73
2024-03-10T10:36:38.576Z,24.10
2024-03-10T10:39:10.574Z,23.37
2024-03-10T10:41:38.656Z,25.23
2024-03-10T10:44:08.758Z,25.57
2024-03-10T10:46:39.801Z,22.80
2024-03-10T10:49:12.632Z,22.70
2024-03-10T10:51:39.418Z,19.73
2024-03-10T10:54:13.646Z,21.03
2024-03-10T10:56:40.697Z,20.03
2024-03-10T10:59:07.346Z,19.17
2024-03-10T11:01:33.990Z,21.77
2024-03-10T11:04:04.622Z,20.17
2024-03-10T11:06:32.935Z,18.10
2024-03-10T11:09:00.319Z,19.43
2024-03-10T11:11:49.717Z,16.23
2024-03-10T11:14:18.166Z,19.17
2024-03-10T11:16:45.297Z,17.07
2024-03-10T11:19:17.161Z,19.93
2024-03-10T11:21:46.674Z,19.37
2024-03-10T11:24:17.579Z,17.33
2024-03-10T11:26:44.769Z,14.73
2024-03-10T11:29:27.177Z,17.97
2024-03-10T11:32:01.058Z,15.70
2024-03-10T11:34:28.826Z,17.27
2024-03-10T11:36:57.928Z,14.60
2024-03-10T11:39:24.709Z,14.33
2024-03-10T11:41:51.420Z,19.97
2024-03-10T11:44:18.563Z,20.33
2024-03-10T11:46:45.261Z,19.30
2024-03-10T11:49:14.811Z,19.70
2024-03-10T11:51:41.789Z,14.67
2024-03-10T11:54:12.939Z,14.50
2024-03-10T11:56:40.832Z,17.13
2024-03-10T11:59:08.783Z,14.50
2024-03-10T12:01:35.588Z,17.00
2024-03-10T12:04:10.110Z,16.77
2024-03-10T12:06:37.370Z,18.23
2024-03-10T12:09:24.331Z,18.50
2024-03-10T12:11:51.842Z,17.43
2024-03-10T12:14:18.682Z,16.20
2024-03-10T12:16:50.866Z,17.53
2024-03-10T12:19:18.563Z,16.40
2024-03-10T12:21:48.431Z,15.83
2024-03-10T12:24:17.246Z,18.40
2024-03-10T12:26:44.955Z,17.60
2024-03-10T12:29:13.375Z,14.10
2024-03-10T12:31:40.132Z,16.13
2024-03-10T12:34:08.914Z,16.67
2024-03-10T12:36:35.517Z,19.73
2024-03-10T12:39:02.217Z,17.43
2024-03-10T12:41:29.506Z,15.77
2024-03-10T12:43:57.924Z,19.67
2024-03-10T12:46:25.301Z,18.87
2024-03-10T12:48:54.506Z,17.90
2024-03-10T12:51:21.507Z,16.00
2024-03-10T12:53:48.402Z,19.23
2024-03-10T12:56:15.422Z,13.70
2024-03-10T12:58:42.173Z,16.17
2024-03-10T13:01:09.006Z,16.00
2024-03-10T13:03:36.574Z,18.07
2024-03-10T13:06:04.328Z,18.27
2024-03-10T13:08:31.554Z,16.63
2024-03-10T13:10:59.952Z,18.77
2024-03-10T13:13:28.027Z,14.47
2024-03-10T13:15:55.926Z,24.97
2024-03-10T13:18:23.250Z,20.63
2024-03-10T13:20:50.430Z,15.77
2024-03-10T13:23:17.329Z,17.90
2024-03-10T13:25:44.107Z,19.87
2024-03-10T13:28:11.193Z,14.20
2024-03-10T13:30:39.597Z,15.03
2024-03-10T13:33:07.203Z,14.67
2024-03-10T13:35:35.294Z,17.33
2024-03-10T13:38:05.340Z,18.60
2024-03-10T13:40:32.719Z,17.03
2024-03-10T13:42:59.431Z,15.67
2024-03-10T13:45:35.516Z,14.37
2024-03-10T13:48:07.480Z,15.47
2024-03-10T13:50:34.786Z,14.73
2024-03-10T13:53:01.464Z,15.37
2024-03-10T13:55:28.727Z,16.73
2024-03-10T13:57:55.763Z,15.13
2024-03-10T14:00:26.108Z,14.73
2024-03-10T14:02:53.277Z,16.33
2024-03-10T14:05:20.988Z,13.47
2024-03-10T14:07:49.053Z,16.13
2024-03-10T14:10:18.732Z,17.37
2024-03-10T14:12:46.224Z,16.97
2024-03-10T14:15:16.546Z,15.13
2024-03-10T14:17:46.225Z,14.33
2024-03-10T14:20:15.699Z,20.57
2024-03-10T14:22:49.655Z,17.67
2024-03-10T14:25:18.823Z,14.73
2024-03-10T14:27:49.114Z,14.17
2024-03-10T14:30:16.225Z,14.70
2024-03-10T14:32:42.901Z,15.73
2024-03-10T14:35:12.876Z,13.40
2024-03-10T14:37:40.587Z,14.30
2024-03-10T14:40:16.440Z,12.83
2024-03-10T14:42:43.765Z,14.97
2024-03-10T14:45:11.671Z,14.60
2024-03-10T14:47:40.713Z,12.33
2024-03-10T14:50:11.981Z,13.23
2024-03-10T14:52:38.617Z,13.20
2024-03-10T14:55:06.063Z,15.83
2024-03-10T14:57:32.998Z,11.37
2024-03-10T15:00:01.451Z,11.83
2024-03-10T15:02:28.505Z,11.03
2024-03-10T15:04:55.349Z,12.47
2024-03-10T15:07:23.979Z,11.87
2024-03-10T15:09:50.876Z,10.77
2024-03-10T15:12:17.666Z,12.53
2024-03-10T15:14:44.768Z,11.23
2024-03-10T15:17:14.069Z,17.67
2024-03-10T15:19:40.658Z,14.63
2024-03-10T15:22:08.235Z,15.07
2024-03-10T15:24:37.700Z,17.73
2024-03-10T15:27:07.922Z,17.60
2024-03-10T15:29:36.008Z,16.67
2024-03-10T15:32:04.064Z,12.03
2024-03-10T15:34:31.870Z,11.33
2024-03-10T15:37:00.590Z,10.20
2024-03-10T15:39:29.529Z,12.50
2024-03-10T15:41:57.965Z,11.03
2024-03-10T15:44:26.311Z,10.57
2024-03-10T15:46:53.407Z,10.60
2024-03-10T15:49:20.677Z,12.07
2024-03-10T15:51:47.364Z,11.23
2024-03-10T15:54:15.574Z,11.20
2024-03-10T15:56:42.347Z,11.53
2024-03-10T15:59:09.476Z,12.63
2024-03-10T16:01:36.262Z,31.60
2024-03-10T16:04:07.704Z,11.50
2024-03-10T16:06:34.489Z,11.73
2024-03-10T16:09:01.552Z,12.83
2024-03-10T16:11:28.272Z,9.57
2024-03-10T16:14:01.086Z,12.10
2024-03-10T16:16:28.795Z,11.97
2024-03-10T16:18:55.519Z,11.10
2024-03-10T16:21:28.671Z,9.07
2024-03-10T16:23:55.235Z,14.97
2024-03-10T16:26:21.825Z,12.07
2024-03-10T16:28:48.454Z,11.90
2024-03-10T16:31:15.245Z,13.73
2024-03-10T16:33:42.506Z,11.77
2024-03-10T16:36:09.131Z,12.90
2024-03-10T16:38:38.263Z,12.17
2024-03-10T16:41:05.949Z,12.90
2024-03-10T16:43:32.597Z,13.20
2024-03-10T16:46:00.111Z,12.67
2024-03-10T16:48:27.320Z,26.90
2024-03-10T16:50:54.253Z,16.13
2024-03-10T16:53:21.425Z,16.23
2024-03-10T16:55:50.742Z,11.97
2024-03-10T16:58:17.762Z,12.03
2024-03-10T17:00:47.881Z,10.93
2024-03-10T17:03:16.535Z,25.17
2024-03-10T17:05:43.776Z,31.17
2024-03-10T17:08:15.055Z,73.53
2024-03-10T17:10:42.418Z,75.40
2024-03-10T17:13:10.263Z,58.80
2024-03-10T17:15:39.059Z,81.07
2024-03-10T17:18:07.109Z,17.93
2024-03-10T17:20:34.866Z,13.10
2024-03-10T17:23:01.737Z,15.53
2024-03-10T17:25:29.591Z,14.20
2024-03-10T17:27:56.682Z,12.60
2024-03-10T17:30:24.188Z,11.67
2024-03-10T17:32:53.757Z,14.63
2024-03-10T17:35:22.002Z,15.87
2024-03-10T17:37:49.299Z,17.17
2024-03-10T17:40:16.135Z,21.20
2024-03-10T17:42:44.011Z,18.60
2024-03-10T17:45:29.587Z,14.94
2024-03-10T17:47:56.522Z,18.57
2024-03-10T17:50:23.145Z,18.13
2024-03-10T17:52:50.333Z,16.03
2024-03-10T17:55:17.483Z,16.57
2024-03-10T17:57:44.142Z,15.50
2024-03-10T18:00:15.101Z,15.37
2024-03-10T18:02:44.210Z,15.87
2024-03-10T18:05:10.958Z,14.60
2024-03-10T18:07:37.647Z,17.27
2024-03-10T18:10:09.534Z,15.53
2024-03-10T18:12:37.641Z,17.13
2024-03-10T18:15:06.781Z,17.77
2024-03-10T18:17:33.539Z,19.97
2024-03-10T18:20:00.278Z,13.87
2024-03-10T18:22:26.841Z,17.57
2024-03-10T18:24:53.793Z,13.13
2024-03-10T18:27:20.490Z,15.57
2024-03-10T18:29:48.369Z,14.27
2024-03-10T18:32:15.081Z,12.50
2024-03-10T18:34:44.420Z,13.83
2024-03-10T18:37:12.702Z,26.03
2024-03-10T18:39:39.801Z,19.50
2024-03-10T18:42:07.248Z,21.60
2024-03-10T18:44:34.009Z,19.53
2024-03-10T18:47:00.653Z,16.30
2024-03-10T18:49:29.423Z,14.47
2024-03-10T18:51:56.791Z,14.30
2024-03-10T18:54:23.408Z,13.73
2024-03-10T18:56:50.324Z,17.53
2024-03-10T18:59:16.945Z,13.70
2024-03-10T19:01:43.721Z,17.60
2024-03-10T19:04:13.810Z,13.57
2024-03-10T19:06:40.628Z,13.87
2024-03-10T19:09:12.390Z,13.00
2024-03-10T19:11:39.189Z,16.97
2024-03-10T19:14:05.921Z,14.60
2024-03-10T19:16:32.535Z,17.70
2024-03-10T19:18:59.106Z,20.93
2024-03-10T19:21:25.872Z,22.07
2024-03-10T19:23:52.470Z,13.93
2024-03-10T19:26:19.159Z,15.17
2024-03-10T19:28:45.798Z,15.97
2024-03-10T19:31:12.482Z,13.23
2024-03-10T19:33:39.876Z,15.57
2024-03-10T19:36:07.163Z,13.50
2024-03-10T19:38:34.029Z,17.97
2024-03-10T19:41:00.714Z,16.13
2024-03-10T19:43:29.064Z,11.27
2024-03-10T19:45:55.898Z,12.57
2024-03-10T19:48:25.412Z,15.60
2024-03-10T19:50:52.484Z,13.67
2024-03-10T19:53:23.104Z,10.90
2024-03-10T19:55:52.159Z,13.00
2024-03-10T19:58:19.290Z,16.23
2024-03-10T20:00:48.642Z,17.10
2024-03-10T20:03:18.623Z,10.37
2024-03-10T20:05:45.684Z,11.80
2024-03-10T20:08:15.084Z,14.40
2024-03-10T20:10:42.391Z,12.17
2024-03-10T20:13:11.580Z,10.63
2024-03-10T20:15:38.380Z,14.07
2024-03-10T20:18:05.342Z,12.00
2024-03-10T20:20:34.036Z,11.27
2024-03-10T20:23:01.238Z,9.80
2024-03-10T20:25:28.808Z,17.87
2024-03-10T20:28:00.314Z,14.47
2024-03-10T20:30:31.143Z,15.23
2024-03-10T20:32:58.299Z,11.30
2024-03-10T20:35:25.163Z,11.07
2024-03-10T20:37:53.823Z,13.97
2024-03-10T20:40:20.559Z,12.27
2024-03-10T20:42:48.742Z,12.70
2024-03-10T20:45:16.041Z,12.17
2024-03-10T20:47:45.872Z,11.73
2024-03-10T20:50:14.225Z,13.40
2024-03-10T20:52:41.015Z,12.73
2024-03-10T20:55:08.185Z,10.40
2024-03-10T20:57:34.974Z,17.67
2024-03-10T21:00:01.584Z,13.10
2024-03-10T21:02:28.365Z,18.50
2024-03-10T21:04:54.972Z,12.83
2024-03-10T21:07:21.544Z,17.93
2024-03-10T21:09:48.675Z,15.47
2024-03-10T21:12:15.512Z,14.47
2024-03-10T21:14:42.413Z,9.37
2024-03-10T21:17:09.260Z,12.33
2024-03-10T21:19:36.204Z,10.53
2024-03-10T21:22:02.932Z,11.30
2024-03-10T21:24:29.535Z,11.60
2024-03-10T21:26:57.353Z,13.77
2024-03-10T21:29:24.260Z,13.07
2024-03-10T21:31:50.925Z,17.57
2024-03-10T21:34:17.686Z,14.07
2024-03-10T21:36:44.343Z,11.93
2024-03-10T21:39:16.639Z,11.20
2024-03-10T21:41:44.193Z,12.70
2024-03-10T21:44:10.931Z,15.17
2024-03-10T21:46:37.937Z,12.60
2024-03-10T21:49:04.772Z,10.40
2024-03-10T21:51:34.349Z,9.33
2024-03-10T21:54:01.620Z,13.80
2024-03-10T21:56:32.482Z,12.63
2024-03-10T21:58:59.929Z,14.40
2024-03-10T22:01:26.537Z,10.93
2024-03-10T22:03:53.130Z,11.47
2024-03-10T22:06:20.381Z,12.23
2024-03-10T22:08:47.228Z,11.77
2024-03-10T22:11:14.026Z,13.07
2024-03-10T22:13:40.737Z,12.93
2024-03-10T22:16:07.338Z,9.67
2024-03-10T22:18:34.367Z,10.33
2024-03-10T22:21:01.210Z,12.53
2024-03-10T22:23:27.928Z,16.87
2024-03-10T22:25:54.527Z,11.83
2024-03-10T22:28:21.065Z,16.40
2024-03-10T22:30:48.339Z,12.10
2024-03-10T22:33:14.917Z,12.93
2024-03-10T22:35:41.746Z,11.20
2024-03-10T22:38:08.396Z,10.67
2024-03-10T22:40:35.169Z,15.13
2024-03-10T22:43:01.933Z,18.73
2024-03-10T22:45:31.831Z,20.17
2024-03-10T22:48:01.551Z,13.40
2024-03-10T22:50:29.324Z,13.50
2024-03-10T22:52:57.286Z,12.50
2024-03-10T22:55:24.162Z,16.13
2024-03-10T22:57:50.779Z,15.63
2024-03-10T23:00:23.987Z,13.57
2024-03-10T23:02:55.807Z,18.13
2024-03-10T23:05:27.630Z,13.43
2024-03-10T23:08:05.590Z,13.23
2024-03-10T23:10:33.044Z,13.40
2024-03-10T23:12:59.898Z,18.83
2024-03-10T23:15:27.554Z,17.47
2024-03-10T23:17:54.303Z,15.43
2024-03-10T23:20:24.038Z,12.57
2024-03-10T23:22:55.888Z,14.00
2024-03-10T23:25:23.544Z,17.50
2024-03-10T23:27:50.544Z,11.57
2024-03-10T23:30:18.418Z,13.23
2024-03-10T23:32:46.080Z,12.50
2024-03-10T23:35:13.771Z,14.17
2024-03-10T23:37:40.527Z,14.47
2024-03-10T23:40:12.398Z,14.97
2024-03-10T23:42:43.393Z,18.03
2024-03-10T23:45:13.782Z,16.37
2024-03-10T23:47:41.956Z,16.67
2024-03-10T23:50:10.701Z,17.93
2024-03-10T23:52:38.057Z,15.83
2024-03-10T23:55:06.238Z,17.80
2024-03-10T23:57:33.241Z,16.93
